sensor_id;sensor_type;location;lat;lon;timestamp;temperature;humidity
45311;SHT31;68264;51.540;5.854;2024-01-11T00:06:34;-4.1;77.3
45311;SHT31;68264;51.540;5.854;2024-01-11T00:21:22;-4.2;78.3
45311;SHT31;68264;51.540;5.854;2024-01-11T00:36:11;-4.3;78.2
45311;SHT31;68264;51.540;5.854;2024-01-11T00:55:47;-4.0;78.2
45311;SHT31;68264;51.540;5.854;2024-01-11T01:14:59;-4.5;78.7
45311;SHT31;68264;51.540;5.854;2024-01-11T01:28:58;-4.7;79.5
45311;SHT31;68264;51.540;5.854;2024-01-11T01:42:57;-5.0;80.0
45311;SHT31;68264;51.540;5.854;2024-01-11T01:57:58;-5.1;80.4
45311;SHT31;68264;51.540;5.854;2024-01-11T02:12:57;-5.3;80.3
45311;SHT31;68264;51.540;5.854;2024-01-11T02:27:58;-5.1;81.4
45311;SHT31;68264;51.540;5.854;2024-01-11T02:43:26;-5.3;81.4
45311;SHT31;68264;51.540;5.854;2024-01-11T02:57:46;-5.4;81.4
45311;SHT31;68264;51.540;5.854;2024-01-11T03:12:14;-5.5;81.8
45311;SHT31;68264;51.540;5.854;2024-01-11T03:27:34;-5.6;82.0
45311;SHT31;68264;51.540;5.854;2024-01-11T03:42:34;-5.8;81.3
45311;SHT31;68264;51.540;5.854;2024-01-11T03:56:33;-5.9;82.3
45311;SHT31;68264;51.540;5.854;2024-01-11T04:10:32;-6.0;82.7
45311;SHT31;68264;51.540;5.854;2024-01-11T04:25:01;-5.9;83.3
45311;SHT31;68264;51.540;5.854;2024-01-11T04:39:20;-5.9;83.6
45311;SHT31;68264;51.540;5.854;2024-01-11T04:53:19;-5.8;83.7
45311;SHT31;68264;51.540;5.854;2024-01-11T05:07:47;-5.8;83.3
45311;SHT31;68264;51.540;5.854;2024-01-11T05:22:06;-5.9;82.8
45311;SHT31;68264;51.540;5.854;2024-01-11T05:36:06;-6.0;83.1
45311;SHT31;68264;51.540;5.854;2024-01-11T05:50:34;-6.2;83.3
45311;SHT31;68264;51.540;5.854;2024-01-11T06:05:22;-6.2;83.4
45311;SHT31;68264;51.540;5.854;2024-01-11T06:20:11;-6.2;83.6
45311;SHT31;68264;51.540;5.854;2024-01-11T06:36:35;-6.1;83.2
45311;SHT31;68264;51.540;5.854;2024-01-11T06:52:35;-6.3;83.6
45311;SHT31;68264;51.540;5.854;2024-01-11T07:06:34;-6.4;83.9
45311;SHT31;68264;51.540;5.854;2024-01-11T07:20:33;-6.4;84.2
45311;SHT31;68264;51.540;5.854;2024-01-11T07:35:02;-6.3;85.5
45311;SHT31;68264;51.540;5.854;2024-01-11T07:50:54;-6.1;84.8
45311;SHT31;68264;51.540;5.854;2024-01-11T08:06:53;-6.2;84.3
45311;SHT31;68264;51.540;5.854;2024-01-11T08:21:13;-5.9;84.8
45311;SHT31;68264;51.540;5.854;2024-01-11T08:35:12;-5.4;85.2
45311;SHT31;68264;51.540;5.854;2024-01-11T08:49:40;-4.1;83.4
45311;SHT31;68264;51.540;5.854;2024-01-11T09:04:28;-3.1;80.5
45311;SHT31;68264;51.540;5.854;2024-01-11T09:19:49;-1.9;76.9
45311;SHT31;68264;51.540;5.854;2024-01-11T09:34:48;-1.0;72.8
45311;SHT31;68264;51.540;5.854;2024-01-11T10:02:46;0.7;66.1
45311;SHT31;68264;51.540;5.854;2024-01-11T10:17:15;1.4;64.7
45311;SHT31;68264;51.540;5.854;2024-01-11T10:31:34;1.7;63.2
45311;SHT31;68264;51.540;5.854;2024-01-11T10:46:02;2.1;61.2
45311;SHT31;68264;51.540;5.854;2024-01-11T11:00:21;2.6;59.6
45311;SHT31;68264;51.540;5.854;2024-01-11T11:14:20;3.0;56.3
45311;SHT31;68264;51.540;5.854;2024-01-11T11:28:20;3.4;54.8
45311;SHT31;68264;51.540;5.854;2024-01-11T11:42:19;3.6;52.9
45311;SHT31;68264;51.540;5.854;2024-01-11T11:57:19;3.5;53.6
45311;SHT31;68264;51.540;5.854;2024-01-11T12:12:19;2.5;55.9
45311;SHT31;68264;51.540;5.854;2024-01-11T12:27:51;2.5;58.8
45311;SHT31;68264;51.540;5.854;2024-01-11T12:43:50;2.1;58.2
45311;SHT31;68264;51.540;5.854;2024-01-11T12:58:09;2.9;56.9
45311;SHT31;68264;51.540;5.854;2024-01-11T13:12:37;1.7;69.2
45311;SHT31;68264;51.540;5.854;2024-01-11T13:26:57;1.7;73.5
45311;SHT31;68264;51.540;5.854;2024-01-11T13:41:25;0.6;80.1
45311;SHT31;68264;51.540;5.854;2024-01-11T13:55:44;0.1;84.5
45311;SHT31;68264;51.540;5.854;2024-01-11T14:24:44;0.4;86.5
45311;SHT31;68264;51.540;5.854;2024-01-11T14:39:43;0.5;85.9
45311;SHT31;68264;51.540;5.854;2024-01-11T14:54:12;0.6;85.5
45311;SHT31;68264;51.540;5.854;2024-01-11T15:08:31;0.7;85.4
45311;SHT31;68264;51.540;5.854;2024-01-11T15:22:30;0.7;85.6
45311;SHT31;68264;51.540;5.854;2024-01-11T15:36:29;0.7;85.6
45311;SHT31;68264;51.540;5.854;2024-01-11T15:52:01;0.3;87.8
45311;SHT31;68264;51.540;5.854;2024-01-11T16:07:31;0.1;89.5
45311;SHT31;68264;51.540;5.854;2024-01-11T16:21:59;0.2;89.6
45311;SHT31;68264;51.540;5.854;2024-01-11T16:36:48;0.1;90.3
45311;SHT31;68264;51.540;5.854;2024-01-11T17:20:24;0.1;91.8
45311;SHT31;68264;51.540;5.854;2024-01-11T17:35:12;0.1;92.3
45311;SHT31;68264;51.540;5.854;2024-01-11T18:32:18;0.1;93.6
45311;SHT31;68264;51.540;5.854;2024-01-11T18:46:17;0.1;93.6
45311;SHT31;68264;51.540;5.854;2024-01-11T19:00:16;0.1;93.9
45311;SHT31;68264;51.540;5.854;2024-01-11T19:14:15;0.2;93.7
45311;SHT31;68264;51.540;5.854;2024-01-11T19:28:14;0.2;94.0
45311;SHT31;68264;51.540;5.854;2024-01-11T19:42:42;0.1;94.7
45311;SHT31;68264;51.540;5.854;2024-01-11T19:57:02;0.3;94.1
45311;SHT31;68264;51.540;5.854;2024-01-11T20:11:01;0.5;93.7
45311;SHT31;68264;51.540;5.854;2024-01-11T20:25:00;0.6;93.5
45311;SHT31;68264;51.540;5.854;2024-01-11T20:42:40;1.0;92.9
45311;SHT31;68264;51.540;5.854;2024-01-11T21:00:21;0.9;92.0
45311;SHT31;68264;51.540;5.854;2024-01-11T21:14:50;0.8;92.5
45311;SHT31;68264;51.540;5.854;2024-01-11T21:29:09;0.6;92.9
45311;SHT31;68264;51.540;5.854;2024-01-11T21:43:08;0.6;93.5
45311;SHT31;68264;51.540;5.854;2024-01-11T21:57:07;0.6;93.5
45311;SHT31;68264;51.540;5.854;2024-01-11T22:12:07;0.7;93.7
45311;SHT31;68264;51.540;5.854;2024-01-11T22:27:36;0.7;93.2
45311;SHT31;68264;51.540;5.854;2024-01-11T22:42:24;0.8;92.7
45311;SHT31;68264;51.540;5.854;2024-01-11T22:56:44;0.7;93.2
45311;SHT31;68264;51.540;5.854;2024-01-11T23:10:43;0.7;93.0
45311;SHT31;68264;51.540;5.854;2024-01-11T23:25:11;0.8;92.8
45311;SHT31;68264;51.540;5.854;2024-01-11T23:39:59;1.0;92.1
45311;SHT31;68264;51.540;5.854;2024-01-11T23:54:19;1.0;91.8
